Naven, Sweden

10:16 AM CEST on September 18, 2014 (GMT +0200)
Orslosa, Kallstorp | Change Station
CLOSE
Current Station
Personal Weather Station
Location: Lidkoping, VASTRA GOTALANDS LAN
Elevation: 198 ft
Nearby Weather Stations

Elev 198 ft 58.51 °N, 12.92 °E | Updated 8 minutes ago

Clear
Clear
53.9 °F
Feels Like 53.9 °F
N
0.0
Wind Variable Wind from North
Gusts 0.0 mph

Today
High -- | Low -- °F
--% Chance of Precip.
Yesterday
High -- | Low -- °F
Precip. -- in
6:42 AM 7:19 PM
Waning Crescent, 29% visible
Pressure 30.21 in
Visibility -9999.0 miles
Clouds
Dew Point 54 °F
Humidity 99%
Rainfall 0.00 in
Snow Depth Not available.
UV 0.0 out of 12
Pollen Not available.
Air Quality Not available.
Flu Activity Not available.
METAR ESIB 180750Z 12006KT CAVOK 13/10 Q1023

More Conditions Fewer Conditions

Pressure 30.21 in
Visibility -9999.0 miles
Clouds
Dew Point 54 °F
Humidity 99%
Rainfall 0.00 in
Snow Depth Not available.
UV 0.0 out of 12
Pollen Not available.
Air Quality Not available.
Flu Activity Not available.
METAR ESIB 180750Z 12006KT CAVOK 13/10 Q1023

More Conditions Fewer Conditions

10-Day Weather Forecast

Almanac

Astronomy

Sep. 18, 2014 Rise Set
Actual Time 6:42 AM CEST 7:19 PM CEST
Civil Twilight 6:02 AM CEST 7:59 PM CEST
Nautical Twilight 5:13 AM CEST 8:48 PM CEST
Astronomical Twilight 4:19 AM CEST 9:41 PM CEST
Moon 12:23 AM CEST 4:50 PM CEST
Length of Visible Light 13h 57m
Length of Day
12h 36m
Tomorrow will be 5m 7s shorter.
Waning Crescent, 29% of the Moon is Illuminated
Today
Waning Crescent
Sep 24
New
Oct 1
First Quarter
Oct 8
Full
Oct 15
Last Quarter

Yesterday's Extremes

Country Highs Country Lows

Community

WunderPhotos

Upload Photos

1,754,307 photos uploaded!

Nearby

Snow Depth

Not available.

Earthquake Activity

City Distance Mag. Time & Date
No recent earthquake activity has been reported nearby.
Minimum magnitude displayed is 2.5.

Coastal Water Temperatures

Place Temperature
No Stations Reporting

Nearby Weather Stations